Time;durP1;ratioP1;P1;durP2;ratioP2;P2;SDS_P1;SDS_P2;PMS_P1;PMS_P2;Temp;Humidity;BMP_temperature;BMP_pressure;BME280_temperature;BME280_humidity;BME280_pressure;Samples;Min_cycle;Max_cycle;Signal;HPM_P1;HPM_P2
2022/04/22 00:01:30;;;;;;;30.33;23.52;;;;;;;10.19;89.88;100107.44;5002136;28;20053;-79
2022/04/22 00:03:56;;;;;;;32.78;23.80;;;;;;;10.17;89.34;100103.09;5003020;28;20065;-80
2022/04/22 00:06:22;;;;;;;30.10;23.05;;;;;;;10.18;89.61;100110.09;4999758;28;20042;-80
2022/04/22 00:08:47;;;;;;;32.45;24.30;;;;;;;10.22;89.52;100106.53;5007492;28;20492;-80
2022/04/22 00:11:31;;;;;;;32.40;23.88;;;;;;;10.24;89.37;100110.00;5005908;28;20045;-80
2022/04/22 00:13:58;;;;;;;30.50;23.63;;;;;;;10.25;89.62;100109.13;5005171;28;20066;-80
2022/04/22 00:16:25;;;;;;;33.60;23.33;;;;;;;10.21;89.31;100110.91;5004839;28;20129;-80
2022/04/22 00:18:50;;;;;;;34.35;23.65;;;;;;;10.19;89.77;100101.28;5007037;28;20049;-80
2022/04/22 00:21:15;;;;;;;35.13;25.00;;;;;;;10.18;90.00;100105.69;5004877;28;20038;-80
2022/04/22 00:23:41;;;;;;;32.30;23.35;;;;;;;10.22;89.46;100109.19;5008978;28;20045;-79
2022/04/22 00:26:06;;;;;;;30.02;21.58;;;;;;;10.25;89.49;100101.22;4988226;28;20044;-80
2022/04/22 00:28:31;;;;;;;31.73;23.92;;;;;;;10.21;89.20;100104.78;5006815;28;20053;-80
2022/04/22 00:30:57;;;;;;;27.48;20.60;;;;;;;10.12;90.12;100102.25;5006718;28;20030;-80
2022/04/22 00:33:22;;;;;;;29.90;22.42;;;;;;;10.11;90.26;100104.00;5006412;28;20037;-80
2022/04/22 00:35:48;;;;;;;27.83;21.90;;;;;;;10.09;90.30;100090.84;5008591;28;20037;-80
2022/04/22 00:38:14;;;;;;;33.00;23.80;;;;;;;10.12;90.22;100089.06;5004731;28;20057;-80
2022/04/22 00:40:39;;;;;;;28.80;22.15;;;;;;;10.09;89.56;100085.56;5006353;28;20527;-80
2022/04/22 00:43:13;;;;;;;30.42;22.60;;;;;;;10.13;89.95;100088.16;5003037;28;20046;-80
2022/04/22 00:45:39;;;;;;;33.95;24.00;;;;;;;10.09;89.99;100079.44;5009582;28;20500;-79
2022/04/22 00:48:04;;;;;;;32.58;23.38;;;;;;;10.05;90.58;100081.22;5007826;28;20115;-80
2022/04/22 00:50:30;;;;;;;35.63;25.70;;;;;;;10.06;90.87;100072.44;5004711;28;20504;-80
2022/04/22 00:52:55;;;;;;;29.48;23.20;;;;;;;10.05;90.61;100072.44;5008114;28;20412;-80
2022/04/22 00:55:21;;;;;;;33.63;24.83;;;;;;;10.04;90.64;100074.22;5005148;28;20121;-80
2022/04/22 00:57:47;;;;;;;36.25;25.77;;;;;;;10.08;90.66;100075.03;5006593;28;20065;-80
2022/04/22 01:00:12;;;;;;;28.95;23.52;;;;;;;10.05;90.30;100069.81;4986292;28;20389;-80
2022/04/22 01:02:38;;;;;;;32.92;24.23;;;;;;;10.02;90.54;100072.47;5007230;28;20037;-80
2022/04/22 01:10:42;;;;;;;34.05;24.60;;;;;;;9.99;90.77;100057.56;5004993;28;20046;-79
2022/04/22 01:13:09;;;;;;;37.75;26.20;;;;;;;10.02;90.75;100057.53;5007130;28;20057;-80
2022/04/22 01:15:38;;;;;;;31.58;24.20;;;;;;;10.05;91.02;100057.47;5018212;28;20046;-80
2022/04/22 01:18:04;;;;;;;36.47;25.42;;;;;;;10.02;91.04;100061.94;5008016;28;20088;-80
2022/04/22 01:20:29;;;;;;;31.20;24.10;;;;;;;10.04;90.47;100046.97;5000820;28;20039;-80
2022/04/22 01:22:54;;;;;;;30.83;23.30;;;;;;;10.06;90.60;100047.81;5007213;28;20030;-80
2022/04/22 01:25:20;;;;;;;34.05;25.20;;;;;;;10.04;90.95;100039.94;5006656;28;20519;-80
2022/04/22 01:27:50;;;;;;;33.33;25.60;;;;;;;10.09;90.60;100050.44;5003924;28;20045;-80
2022/04/22 01:30:20;;;;;;;33.75;25.60;;;;;;;10.07;90.65;100037.25;5003283;28;20049;-80
2022/04/22 01:32:46;;;;;;;32.78;26.17;;;;;;;10.03;90.77;100025.03;5005680;28;20057;-80
2022/04/22 01:35:12;;;;;;;34.50;24.00;;;;;;;10.05;90.49;100031.13;5002468;28;20046;-80
2022/04/22 01:37:37;;;;;;;34.05;24.83;;;;;;;10.01;90.85;100025.94;5007488;28;20041;-80
2022/04/22 01:40:03;;;;;;;35.97;24.83;;;;;;;10.00;90.49;100026.78;5003465;28;20042;-80
2022/04/22 01:42:28;;;;;;;34.33;23.40;;;;;;;10.00;91.12;100027.66;5006259;28;20037;-80
2022/04/22 01:44:53;;;;;;;31.45;24.70;;;;;;;10.02;90.69;100031.16;5006637;28;20084;-80
2022/04/22 01:47:19;;;;;;;33.78;25.60;;;;;;;10.03;90.96;100026.75;5004505;28;20041;-79
2022/04/22 01:49:44;;;;;;;33.90;24.40;;;;;;;10.02;90.89;100022.38;5004052;28;20045;-80
2022/04/22 01:52:10;;;;;;;29.40;23.05;;;;;;;10.04;90.94;100018.84;5004314;28;20056;-80
2022/04/22 01:54:35;;;;;;;32.80;23.58;;;;;;;10.09;90.23;100018.78;5017292;28;20116;-79
2022/04/22 01:57:01;;;;;;;28.75;22.88;;;;;;;10.15;89.92;100025.75;5009246;28;20033;-80
2022/04/22 01:59:27;;;;;;;31.02;24.80;;;;;;;10.16;89.93;100011.66;5004159;28;20397;-80
2022/04/22 02:01:52;;;;;;;34.05;25.10;;;;;;;10.16;89.31;100022.22;5006197;28;20042;-80
2022/04/22 02:04:17;;;;;;;32.97;24.10;;;;;;;10.12;89.39;100016.13;5000537;28;20034;-80
2022/04/22 02:06:43;;;;;;;30.42;23.95;;;;;;;10.12;89.56;100013.47;5006077;28;20041;-80
2022/04/22 02:09:08;;;;;;;30.77;21.95;;;;;;;10.07;89.84;100008.25;5004370;28;20038;-79
2022/04/22 02:11:35;;;;;;;30.33;22.27;;;;;;;10.07;89.60;100008.25;5007319;28;20042;-80
2022/04/22 02:14:00;;;;;;;35.38;24.75;;;;;;;10.05;90.19;100012.66;5022647;28;20029;-80
2022/04/22 02:16:25;;;;;;;34.67;25.42;;;;;;;10.03;90.30;100010.94;5005785;28;20404;-79
2022/04/22 02:18:51;;;;;;;31.77;23.63;;;;;;;10.06;90.57;100005.63;5009318;28;20409;-79
2022/04/22 02:21:17;;;;;;;31.27;23.13;;;;;;;10.06;90.55;100006.53;5005267;28;20044;-80
2022/04/22 02:23:43;;;;;;;31.98;25.50;;;;;;;10.04;90.24;100010.94;5003956;28;20429;-80
2022/04/22 02:26:08;;;;;;;29.15;22.25;;;;;;;10.04;90.65;100008.28;5005605;28;20053;-80
2022/04/22 02:28:34;;;;;;;32.80;23.92;;;;;;;10.06;90.50;100005.63;5006468;28;20049;-80
2022/04/22 02:31:07;;;;;;;28.60;22.88;;;;;;;10.06;89.94;100006.53;5005650;28;20030;-80
2022/04/22 02:33:34;;;;;;;28.90;22.70;;;;;;;10.06;90.01;100006.53;5004384;28;20050;-80
2022/04/22 02:36:00;;;;;;;30.05;22.77;;;;;;;10.07;90.09;100005.63;5004705;28;20103;-80
2022/04/22 02:38:30;;;;;;;37.38;26.33;;;;;;;10.06;89.93;100005.63;5006177;28;20038;-79
2022/04/22 02:46:25;;;;;;;34.50;24.65;;;;;;;10.21;89.69;100004.56;5003358;28;20046;-79
2022/04/22 02:48:51;;;;;;;32.25;24.58;;;;;;;10.23;89.42;99997.50;5005995;28;20048;-80
2022/04/22 02:51:17;;;;;;;33.80;25.60;;;;;;;10.25;89.31;99998.38;5014068;28;20409;-80
2022/04/22 02:53:43;;;;;;;33.13;23.65;;;;;;;10.28;89.16;99998.34;5004573;28;20033;-79
2022/04/22 02:56:09;;;;;;;33.53;23.95;;;;;;;10.28;89.16;99993.09;5005428;28;20034;-79
2022/04/22 02:58:34;;;;;;;33.50;24.23;;;;;;;10.26;88.87;99995.69;5005096;28;20034;-80
2022/04/22 03:01:00;;;;;;;32.55;23.00;;;;;;;10.20;89.62;99987.00;5004566;28;20034;-79
2022/04/22 03:03:25;;;;;;;29.20;22.25;;;;;;;10.19;89.29;99990.50;4999586;28;20401;-80
2022/04/22 03:05:51;;;;;;;30.05;24.02;;;;;;;10.21;89.39;99989.59;5006265;28;20050;-80
2022/04/22 03:08:16;;;;;;;31.23;24.00;;;;;;;10.23;89.33;99986.97;5004615;28;20026;-80
2022/04/22 03:10:42;;;;;;;30.50;23.08;;;;;;;10.23;88.33;99981.69;5007891;28;20070;-80
2022/04/22 03:13:07;;;;;;;28.00;21.63;;;;;;;10.24;88.18;99979.03;5008779;28;20038;-80
2022/04/22 03:15:33;;;;;;;31.80;23.48;;;;;;;10.25;88.27;99983.41;5006350;28;20440;-80
2022/04/22 03:18:02;;;;;;;55.55;35.42;;;;;;;10.29;88.29;99981.63;5016901;28;20071;-80
2022/04/22 03:20:27;;;;;;;52.00;35.58;;;;;;;10.32;88.36;99973.66;5002714;28;20045;-79
2022/04/22 03:22:52;;;;;;;48.25;33.70;;;;;;;10.31;88.31;99971.94;5004004;28;20420;-80
2022/04/22 03:25:20;;;;;;;38.63;29.60;;;;;;;10.29;88.10;99971.06;5002923;28;20065;-79
2022/04/22 03:27:46;;;;;;;36.83;27.90;;;;;;;10.27;87.56;99970.19;5005389;28;20088;-79
2022/04/22 03:30:12;;;;;;;35.60;27.63;;;;;;;10.26;87.72;99966.69;4998708;28;20045;-80
2022/04/22 03:32:37;;;;;;;39.10;28.25;;;;;;;10.25;88.10;99969.34;5006929;28;20038;-80
2022/04/22 03:35:04;;;;;;;36.63;28.02;;;;;;;10.25;87.77;99969.34;5013594;28;20063;-80
2022/04/22 03:37:30;;;;;;;35.80;27.80;;;;;;;10.24;87.65;99967.59;5015152;28;20056;-81
2022/04/22 03:39:57;;;;;;;34.05;25.73;;;;;;;10.22;87.82;99964.13;5011830;28;20102;-81
2022/04/22 03:42:22;;;;;;;34.25;25.85;;;;;;;10.19;87.87;99969.41;5011676;28;20069;-81
2022/04/22 03:44:47;;;;;;;36.83;27.30;;;;;;;10.16;87.40;99959.78;5010298;28;20042;-80
2022/04/22 03:47:13;;;;;;;31.05;24.85;;;;;;;10.17;87.93;99963.31;5013384;28;20166;-80
2022/04/22 03:49:38;;;;;;;36.03;27.05;;;;;;;10.17;87.44;99956.28;5009919;28;20176;-80
2022/04/22 03:52:04;;;;;;;32.92;26.33;;;;;;;10.17;87.61;99952.78;5009415;28;20488;-81
2022/04/22 03:54:29;;;;;;;37.85;27.60;;;;;;;10.14;87.71;99951.06;5011009;28;20546;-81
2022/04/22 03:59:39;;;;;;;45.67;33.63;;;;;;;10.12;87.69;99954.59;5027822;28;20080;-80
2022/04/22 04:02:04;;;;;;;48.88;33.97;;;;;;;10.11;87.61;99953.69;5009936;28;20026;-80
2022/04/22 04:04:30;;;;;;;49.20;36.13;;;;;;;10.13;87.71;99958.97;5013332;28;20041;-81
2022/04/22 04:06:55;;;;;;;48.25;33.63;;;;;;;10.15;88.08;99955.41;5010974;28;20049;-81
2022/04/22 04:17:38;;;;;;;41.30;30.77;;;;;;;10.19;87.59;99959.78;5010638;28;20069;-81
2022/04/22 04:25:32;;;;;;;33.13;24.67;;;;;;;10.07;88.16;99952.88;5010592;28;20058;-81
2022/04/22 04:27:57;;;;;;;30.27;24.55;;;;;;;10.06;87.56;99958.16;5010419;28;20042;-81
2022/04/22 04:30:23;;;;;;;34.17;25.15;;;;;;;10.05;88.05;99952.03;5012244;28;20045;-81
2022/04/22 04:32:49;;;;;;;31.63;24.42;;;;;;;10.05;87.68;99952.03;5009265;28;20038;-81
2022/04/22 04:35:14;;;;;;;37.50;27.25;;;;;;;10.07;88.05;99955.53;5012418;28;20034;-80
2022/04/22 04:37:44;;;;;;;34.30;26.23;;;;;;;10.10;88.43;99960.75;5011452;28;20038;-80
2022/04/22 04:40:10;;;;;;;40.28;28.73;;;;;;;10.11;88.24;99969.53;5010438;28;20481;-80
2022/04/22 04:42:36;;;;;;;38.83;28.10;;;;;;;10.15;88.59;99962.47;5013118;28;20038;-81
2022/04/22 04:45:02;;;;;;;46.17;33.08;;;;;;;10.21;88.09;99968.50;5005863;28;20137;-80
2022/04/22 04:47:27;;;;;;;47.55;35.05;;;;;;;10.27;87.90;99957.00;5017274;28;20061;-81
2022/04/22 04:49:53;;;;;;;45.90;34.90;;;;;;;10.32;88.04;99963.13;5023615;28;20056;-80
2022/04/22 04:52:18;;;;;;;40.65;29.10;;;;;;;10.34;87.18;99953.41;5010437;28;20079;-80
2022/04/22 04:54:43;;;;;;;38.33;29.15;;;;;;;10.36;87.28;99956.91;5013303;28;20524;-80
2022/04/22 04:57:09;;;;;;;38.22;28.35;;;;;;;10.36;87.32;99951.63;5013503;28;20092;-80
2022/04/22 04:59:34;;;;;;;40.70;29.58;;;;;;;10.35;87.23;99949.91;5012229;28;20519;-80
2022/04/22 05:01:59;;;;;;;39.13;28.55;;;;;;;10.37;87.40;99952.50;5014660;28;20493;-80
2022/04/22 05:04:25;;;;;;;34.67;26.02;;;;;;;10.39;87.52;99950.72;5011168;28;20116;-80
2022/04/22 05:06:50;;;;;;;44.08;32.08;;;;;;;10.36;87.21;99950.78;5014076;28;20041;-81
2022/04/22 05:09:15;;;;;;;38.53;28.08;;;;;;;10.37;87.05;99950.72;5013757;28;20041;-80
2022/04/22 05:11:41;;;;;;;35.83;27.10;;;;;;;10.46;87.70;99949.75;5012743;28;20046;-80
2022/04/22 05:14:07;;;;;;;48.35;34.42;;;;;;;10.55;87.58;99948.72;4990639;28;20042;-80
2022/04/22 05:16:33;;;;;;;47.38;34.42;;;;;;;10.65;86.64;99950.34;5010593;28;20077;-80
2022/04/22 05:18:58;;;;;;;44.35;33.13;;;;;;;10.72;86.26;99950.22;5012786;28;20034;-80
2022/04/22 05:21:23;;;;;;;45.97;32.60;;;;;;;10.79;85.85;99950.97;5011802;28;20046;-80
2022/04/22 05:23:49;;;;;;;35.47;27.17;;;;;;;10.81;85.67;99950.97;5014591;28;20125;-80
2022/04/22 05:26:14;;;;;;;33.80;25.17;;;;;;;10.79;85.51;99950.97;5012797;28;20133;-80
2022/04/22 05:28:39;;;;;;;35.80;27.20;;;;;;;10.82;85.73;99947.41;5014042;28;20128;-80
2022/04/22 05:33:51;;;;;;;35.53;26.25;;;;;;;10.91;85.10;99950.78;5011321;28;20405;-80
2022/04/22 05:36:16;;;;;;;38.63;28.85;;;;;;;10.91;85.74;99944.63;5012047;28;20051;-80
2022/04/22 05:38:41;;;;;;;35.35;28.50;;;;;;;10.93;85.57;99943.72;5015067;28;20042;-80
2022/04/22 05:41:07;;;;;;;38.85;28.45;;;;;;;10.93;84.79;99943.72;5011963;28;20102;-80
2022/04/22 05:43:32;;;;;;;35.13;26.35;;;;;;;10.91;84.98;99937.56;5012927;28;20132;-81
2022/04/22 05:45:58;;;;;;;34.05;26.20;;;;;;;10.87;85.44;99942.91;5010858;28;20119;-80
2022/04/22 05:48:23;;;;;;;31.58;24.10;;;;;;;10.81;85.37;99935.13;5009479;28;20420;-81
2022/04/22 05:50:49;;;;;;;31.10;25.65;;;;;;;10.75;85.41;99938.72;5021163;28;20101;-80
2022/04/22 05:53:14;;;;;;;31.52;24.73;;;;;;;10.72;85.83;99936.16;5011811;28;20120;-81
2022/04/22 05:55:39;;;;;;;59.50;39.20;;;;;;;10.86;86.08;99931.50;5013430;28;20049;-81
2022/04/22 05:58:05;;;;;;;47.05;34.60;;;;;;;10.93;85.56;99930.50;5013424;28;20042;-80
2022/04/22 06:00:31;;;;;;;38.95;29.63;;;;;;;10.97;85.29;99928.66;5011675;28;20504;-81
2022/04/22 06:02:57;;;;;;;35.83;27.73;;;;;;;11.00;85.07;99928.63;5010449;28;20110;-81
2022/04/22 06:05:25;;;;;;;32.03;25.98;;;;;;;10.98;85.04;99914.59;5013474;28;20038;-81
2022/04/22 06:10:35;;;;;;;31.33;24.33;;;;;;;11.02;85.32;99912.75;5012826;28;20157;-80
2022/04/22 06:13:01;;;;;;;34.63;27.33;;;;;;;11.10;85.09;99910.84;5016501;28;20503;-81
2022/04/22 06:15:27;;;;;;;36.35;27.33;;;;;;;11.13;84.60;99921.34;5012132;28;20038;-81
2022/04/22 06:17:52;;;;;;;36.08;28.58;;;;;;;11.19;85.05;99924.75;5012854;28;20042;-81
2022/04/22 06:20:18;;;;;;;40.78;30.75;;;;;;;11.27;84.17;99921.97;5014929;28;20034;-81
2022/04/22 06:22:43;;;;;;;41.40;31.67;;;;;;;11.40;83.97;99925.25;5014737;28;20158;-81
2022/04/22 06:25:10;;;;;;;45.75;35.53;;;;;;;11.55;83.86;99922.31;5014228;28;20412;-80
2022/04/22 06:27:40;;;;;;;41.42;32.00;;;;;;;11.64;83.20;99918.63;5012007;28;20034;-80
2022/04/22 06:30:10;;;;;;;37.22;28.80;;;;;;;11.69;82.53;99922.03;5014178;28;20048;-81
2022/04/22 06:32:37;;;;;;;43.45;32.72;;;;;;;11.77;82.43;99913.94;5013921;28;20050;-80
2022/04/22 06:35:04;;;;;;;45.63;34.58;;;;;;;11.87;81.72;99922.56;5027328;28;20038;-80
2022/04/22 06:37:51;;;;;;;56.40;40.45;;;;;;;11.91;82.00;99933.06;5013565;28;20021;-80
2022/04/22 06:45:48;;;;;;;35.20;26.27;;;;;;;12.21;80.77;99928.88;5013003;28;20098;-80
2022/04/22 06:48:21;;;;;;;27.77;22.90;;;;;;;12.30;80.03;99929.59;5016197;28;20556;-80
2022/04/22 06:50:48;;;;;;;34.17;27.85;;;;;;;12.38;79.40;99923.19;5009019;28;20050;-80
2022/04/22 06:53:15;;;;;;;31.98;25.73;;;;;;;12.26;78.81;99921.72;5014372;28;20030;-80
2022/04/22 06:55:41;;;;;;;30.88;23.55;;;;;;;12.26;79.16;99920.81;5014083;28;20050;-80
2022/04/22 06:58:10;;;;;;;25.85;22.00;;;;;;;12.18;79.88;99923.69;5012166;28;20041;-81
2022/04/22 07:00:36;;;;;;;30.05;23.48;;;;;;;12.13;80.11;99929.94;5011367;28;20377;-81
2022/04/22 07:03:02;;;;;;;29.92;25.08;;;;;;;11.99;79.86;99933.75;5013230;28;20038;-81
2022/04/22 07:05:27;;;;;;;26.98;22.52;;;;;;;11.94;80.31;99926.84;5013336;28;20045;-80
2022/04/22 07:07:53;;;;;;;31.73;25.85;;;;;;;11.88;79.92;99925.19;5012635;28;20476;-81
2022/04/22 07:10:19;;;;;;;44.65;32.97;;;;;;;11.81;80.68;99919.13;5014784;28;20030;-81
2022/04/22 07:12:44;;;;;;;57.25;39.08;;;;;;;11.87;81.71;99925.22;5008034;28;20091;-80
2022/04/22 07:15:10;;;;;;;61.85;40.50;;;;;;;11.93;81.51;99925.09;5013084;28;20103;-81
2022/04/22 07:17:37;;;;;;;60.28;40.28;;;;;;;12.01;81.43;99924.03;5012835;28;20135;-81
2022/04/22 07:20:09;;;;;;;47.78;35.33;;;;;;;12.02;80.40;99930.19;5009408;28;20035;-80
2022/04/22 07:22:38;;;;;;;30.00;23.80;;;;;;;11.99;80.23;99931.13;5012202;28;20030;-81
2022/04/22 07:25:08;;;;;;;30.73;24.25;;;;;;;12.01;80.51;99933.75;5015146;28;20072;-81
2022/04/22 07:27:36;;;;;;;31.63;24.80;;;;;;;12.08;80.72;99927.44;5010926;28;20049;-81
2022/04/22 07:30:07;;;;;;;31.77;24.77;;;;;;;12.04;80.86;99925.75;5013038;28;20030;-81
2022/04/22 07:32:37;;;;;;;30.38;24.05;;;;;;;12.04;80.48;99928.38;5026123;28;20397;-81
2022/04/22 07:35:08;;;;;;;29.75;25.17;;;;;;;12.06;80.52;99930.09;5013200;28;20034;-81
2022/04/22 07:37:34;;;;;;;27.77;21.70;;;;;;;12.04;80.34;99931.03;5012435;28;20044;-81
2022/04/22 07:39:59;;;;;;;30.85;25.65;;;;;;;12.03;80.41;99929.28;5025820;28;20105;-81
2022/04/22 07:42:28;;;;;;;28.77;22.90;;;;;;;12.04;80.26;99920.44;5018020;28;20045;-80
2022/04/22 07:47:42;;;;;;;27.70;21.88;;;;;;;11.97;80.48;99925.00;5012622;28;20124;-81
2022/04/22 07:50:07;;;;;;;36.83;27.48;;;;;;;12.00;80.13;99929.38;5010823;28;20046;-80
2022/04/22 07:52:33;;;;;;;40.05;29.67;;;;;;;12.01;79.87;99926.66;5011024;28;20060;-81
2022/04/22 07:54:59;;;;;;;42.42;34.05;;;;;;;12.08;79.83;99922.13;5012507;28;20388;-81
2022/04/22 07:57:24;;;;;;;36.03;28.63;;;;;;;12.09;79.62;99921.22;5012099;28;20038;-81
2022/04/22 07:59:50;;;;;;;38.30;31.15;;;;;;;12.16;79.67;99920.19;5012585;28;20517;-80
2022/04/22 08:02:16;;;;;;;36.47;29.17;;;;;;;12.21;79.31;99923.59;5010311;28;20065;-81
2022/04/22 08:04:42;;;;;;;31.33;25.88;;;;;;;12.20;79.18;99921.84;5010163;28;20061;-81
2022/04/22 08:07:08;;;;;;;35.22;27.13;;;;;;;12.22;79.27;99920.03;5012340;28;20038;-81
2022/04/22 08:09:34;;;;;;;41.75;31.17;;;;;;;12.29;79.16;99920.78;5013330;28;20034;-81
2022/04/22 08:12:00;;;;;;;34.90;28.13;;;;;;;12.31;79.07;99918.09;5015796;28;20044;-81
2022/04/22 08:14:27;;;;;;;48.30;35.80;;;;;;;12.35;78.79;99920.63;5009807;28;20493;-81
2022/04/22 08:16:53;;;;;;;44.20;34.30;;;;;;;12.39;78.49;99926.72;5013363;28;20037;-80
2022/04/22 08:19:18;;;;;;;34.47;27.38;;;;;;;12.38;78.02;99915.25;5015205;28;20034;-80
2022/04/22 08:21:44;;;;;;;34.65;27.77;;;;;;;12.40;77.78;99917.88;4992295;28;20062;-81
2022/04/22 08:24:10;;;;;;;33.25;26.92;;;;;;;12.45;77.66;99919.50;5014329;28;20046;-80
2022/04/22 08:26:36;;;;;;;32.28;27.05;;;;;;;12.53;77.48;99918.47;5023003;28;20038;-80
2022/04/22 08:29:02;;;;;;;34.65;26.85;;;;;;;12.51;77.32;99907.91;5014677;28;20038;-80
2022/04/22 08:31:27;;;;;;;28.35;23.58;;;;;;;12.55;77.46;99916.63;5012857;28;20046;-81
2022/04/22 08:33:56;;;;;;;26.52;20.88;;;;;;;12.57;77.10;99910.41;5016265;28;20072;-81
2022/04/22 08:36:22;;;;;;;24.88;20.70;;;;;;;12.47;77.14;99917.72;5012941;28;20092;-80
2022/04/22 08:38:47;;;;;;;26.23;20.95;;;;;;;12.46;76.85;99920.38;5015392;28;20069;-80
2022/04/22 08:41:13;;;;;;;26.60;21.15;;;;;;;12.48;76.66;99916.78;5014255;28;20076;-80
2022/04/22 08:43:39;;;;;;;27.50;21.83;;;;;;;12.54;77.09;99914.91;5014256;28;20117;-81
2022/04/22 08:49:58;;;;;;;28.77;21.08;;;;;;;12.52;77.08;99922.88;5016673;28;20516;-80
2022/04/22 08:51:40;;;;;;;27.48;20.88;;;;;;;12.67;77.75;99914.56;5013057;28;20067;-80
2022/04/22 08:54:08;;;;;;;24.90;20.25;;;;;;;12.80;77.39;99911.63;5016717;28;20056;-80
2022/04/22 08:56:34;;;;;;;27.35;20.73;;;;;;;12.71;76.99;99908.28;5017406;28;20034;-80
2022/04/22 08:59:01;;;;;;;28.50;23.40;;;;;;;12.82;76.70;99907.16;5012664;28;20038;-80
2022/04/22 09:01:26;;;;;;;25.88;20.40;;;;;;;12.97;76.19;99906.78;5016114;28;20034;-81
2022/04/22 09:03:51;;;;;;;26.58;21.75;;;;;;;13.14;76.57;99901.88;5015285;28;20117;-80
2022/04/22 09:06:20;;;;;;;24.00;19.70;;;;;;;13.32;75.95;99911.16;5014467;28;20066;-80
2022/04/22 09:08:49;;;;;;;29.00;22.83;;;;;;;13.52;75.86;99897.34;5016781;28;20034;-81
2022/04/22 09:11:15;;;;;;;52.05;35.13;;;;;;;13.52;75.36;99900.00;5013214;28;20373;-80
2022/04/22 09:13:40;;;;;;;48.45;36.63;;;;;;;13.41;75.20;99904.72;5014303;28;20034;-81
2022/04/22 09:16:05;;;;;;;54.58;38.22;;;;;;;13.40;75.01;99896.81;5017728;28;20051;-81
2022/04/22 09:18:35;;;;;;;52.50;35.70;;;;;;;13.48;75.06;99893.03;5015873;28;20038;-80
2022/04/22 09:21:06;;;;;;;28.08;21.67;;;;;;;13.43;74.16;99892.28;5014938;28;20066;-81
2022/04/22 09:23:36;;;;;;;25.70;20.88;;;;;;;13.41;74.10;99880.88;5015823;28;20038;-81
2022/04/22 09:26:04;;;;;;;25.27;20.35;;;;;;;13.53;74.54;99891.13;5014517;28;20034;-81
2022/04/22 09:28:30;;;;;;;24.30;19.90;;;;;;;13.66;73.68;99888.13;5016474;28;20418;-81
2022/04/22 09:30:59;;;;;;;23.58;20.30;;;;;;;13.79;73.50;99884.22;5016740;28;20068;-81
2022/04/22 09:33:25;;;;;;;27.00;21.05;;;;;;;13.99;72.93;99887.13;5013955;28;20081;-81
2022/04/22 09:44:24;;;;;;;24.35;21.00;;;;;;;14.68;70.01;99868.16;5008197;28;20038;-80
2022/04/22 09:47:09;;;;;;;25.23;20.20;;;;;;;14.77;69.44;99874.94;5007437;28;20042;-80
2022/04/22 09:49:44;;;;;;;23.33;18.98;;;;;;;14.63;69.47;99868.31;5007030;28;20034;-80
2022/04/22 09:52:10;;;;;;;23.08;18.27;;;;;;;14.62;68.97;99861.28;5008092;28;20570;-80
2022/04/22 09:54:37;;;;;;;22.58;18.77;;;;;;;14.61;69.62;99858.66;5006797;28;20136;-80
2022/04/22 09:57:04;;;;;;;21.40;17.95;;;;;;;14.77;70.09;99859.00;5005762;28;20038;-80
2022/04/22 09:59:32;;;;;;;22.55;17.88;;;;;;;14.85;69.42;99856.94;5010234;28;20091;-80
2022/04/22 10:01:58;;;;;;;22.40;17.08;;;;;;;14.98;69.58;99846.78;5004104;28;20038;-81
2022/04/22 10:04:23;;;;;;;21.25;18.25;;;;;;;15.04;68.50;99847.44;5009838;28;20038;-81
2022/04/22 10:06:50;;;;;;;22.13;17.98;;;;;;;15.06;68.24;99853.56;5006512;28;20471;-80
2022/04/22 10:09:16;;;;;;;20.08;16.67;;;;;;;15.21;67.94;99843.28;5009466;28;20037;-80
2022/04/22 10:11:43;;;;;;;19.55;16.70;;;;;;;15.28;67.94;99842.16;5007722;28;20052;-80
2022/04/22 10:14:09;;;;;;;22.30;17.38;;;;;;;15.33;67.10;99837.53;5006445;28;20566;-80
2022/04/22 10:16:35;;;;;;;23.95;17.35;;;;;;;15.45;67.79;99829.09;5009004;28;20076;-80
2022/04/22 10:19:02;;;;;;;20.15;17.75;;;;;;;15.64;67.81;99836.38;5006567;28;20038;-80
2022/04/22 10:21:28;;;;;;;20.77;17.77;;;;;;;15.67;66.09;99825.66;5005137;28;20119;-81
2022/04/22 10:23:56;;;;;;;23.15;18.00;;;;;;;15.78;66.11;99824.31;5003341;28;20030;-80
2022/04/22 10:26:21;;;;;;;25.02;21.38;;;;;;;15.89;65.46;99826.56;5012811;28;20061;-80
2022/04/22 10:28:47;;;;;;;19.42;14.95;;;;;;;15.92;64.55;99828.22;5007361;28;20030;-80
2022/04/22 10:31:12;;;;;;;18.48;14.30;;;;;;;15.75;63.82;99818.25;5007447;28;20089;-81
2022/04/22 10:33:43;;;;;;;26.25;23.05;;;;;;;16.08;64.30;99826.69;5007693;28;20038;-80
2022/04/22 10:36:15;;;;;;;24.42;21.00;;;;;;;16.47;63.07;99822.47;5013080;28;20125;-81
2022/04/22 10:38:44;;;;;;;17.88;15.98;;;;;;;16.87;62.49;99821.66;4990167;28;20038;-79
2022/04/22 10:41:18;;;;;;;18.67;15.88;;;;;;;17.25;60.82;99813.78;4987554;28;20041;-80
2022/04/22 10:47:13;;;;;;;19.10;15.60;;;;;;;17.32;59.32;99812.59;5009903;28;20117;-80
2022/04/22 10:49:17;;;;;;;17.63;14.88;;;;;;;17.71;57.73;99803.66;5006646;28;20396;-80
2022/04/22 10:52:09;;;;;;;26.23;21.40;;;;;;;17.79;57.08;99796.22;5018977;28;20046;-81
2022/04/22 10:54:53;;;;;;;26.52;22.30;;;;;;;17.99;57.08;99802.38;4991113;28;20103;-81
2022/04/22 10:57:23;;;;;;;20.65;18.48;;;;;;;18.06;56.76;99795.81;5007120;28;20034;-81
2022/04/22 11:00:07;;;;;;;19.42;17.33;;;;;;;18.44;54.77;99795.72;5005558;28;20068;-80
2022/04/22 11:02:34;;;;;;;19.58;17.38;;;;;;;18.82;54.64;99794.66;5005887;28;20080;-81
2022/04/22 11:05:32;;;;;;;24.90;21.60;;;;;;;19.22;54.57;99797.03;5007829;28;20456;-81
2022/04/22 11:07:58;;;;;;;27.67;22.50;;;;;;;19.16;54.15;99795.56;4967295;28;20050;-80
2022/04/22 11:10:25;;;;;;;19.40;17.02;;;;;;;19.20;52.61;99791.78;5007503;28;20069;-81
2022/04/22 11:12:56;;;;;;;30.08;25.15;;;;;;;19.01;53.52;99788.34;5008174;28;20038;-81
2022/04/22 11:15:43;;;;;;;22.65;19.55;;;;;;;19.29;51.98;99792.22;5009817;28;20035;-81
2022/04/22 11:18:09;;;;;;;27.67;22.02;;;;;;;19.72;52.01;99785.41;5024697;28;20113;-81
2022/04/22 11:20:42;;;;;;;24.35;21.75;;;;;;;19.97;50.53;99779.53;5003507;28;20101;-80
2022/04/22 11:23:12;;;;;;;22.27;19.80;;;;;;;19.81;49.27;99767.97;5007761;28;20081;-81
2022/04/22 11:25:38;;;;;;;28.40;25.30;;;;;;;19.53;49.80;99777.50;5008376;28;20127;-81
2022/04/22 11:28:04;;;;;;;32.33;28.83;;;;;;;19.82;50.15;99775.91;5010459;28;20046;-81
2022/04/22 11:30:32;;;;;;;32.72;27.58;;;;;;;20.19;49.93;99767.59;5007204;28;20054;-81
2022/04/22 11:33:22;;;;;;;28.15;25.30;;;;;;;20.32;48.81;99769.44;5010882;28;20040;-81
2022/04/22 11:35:53;;;;;;;33.75;27.55;;;;;;;19.81;49.36;99774.19;5009261;28;20192;-81
2022/04/22 11:38:20;;;;;;;25.13;22.30;;;;;;;19.32;48.67;99760.81;5007838;28;20040;-81
2022/04/22 11:40:50;;;;;;;27.27;24.30;;;;;;;18.47;50.16;99766.16;5009730;28;20413;-82
2022/04/22 11:43:21;;;;;;;29.58;25.40;;;;;;;18.33;50.92;99770.41;4990810;28;20033;-81
2022/04/22 11:45:48;;;;;;;27.88;24.88;;;;;;;18.95;50.50;99776.16;5005532;28;20096;-81
2022/04/22 11:48:22;;;;;;;27.02;24.10;;;;;;;19.21;49.90;99777.44;5008639;28;20038;-81
2022/04/22 11:50:47;;;;;;;26.63;23.73;;;;;;;19.30;49.08;99777.91;5004881;28;20077;-81
2022/04/22 11:53:15;;;;;;;26.65;23.90;;;;;;;19.34;48.34;99785.69;5010631;28;20053;-81
2022/04/22 11:55:44;;;;;;;29.35;24.67;;;;;;;19.98;48.24;99783.06;5006210;28;20040;-80
2022/04/22 11:58:10;;;;;;;25.45;22.40;;;;;;;20.55;47.86;99784.22;5007493;28;20042;-81
2022/04/22 12:06:13;;;;;;;23.70;21.17;;;;;;;21.38;45.49;99779.22;5013331;28;20061;-81
2022/04/22 12:08:52;;;;;;;26.27;23.10;;;;;;;21.31;44.02;99775.13;5025679;28;20042;-81
2022/04/22 12:11:18;;;;;;;21.77;19.48;;;;;;;21.16;44.21;99771.56;5010893;28;20412;-81
2022/04/22 12:13:45;;;;;;;28.95;25.17;;;;;;;20.89;44.06;99776.84;5012556;28;20033;-81
2022/04/22 12:16:11;;;;;;;31.60;28.20;;;;;;;20.82;44.90;99783.50;5011006;28;20656;-81